Townsend, GA (31331)

11:49 AM EDT on October 24, 2014 (GMT -0400)
RAWS MIDWAY GA US | Change Station
CLOSE
Current Station
Personal Weather Station
Location: Midway, GA
Elevation: 15 ft
Nearby Weather Stations

Elev 15 ft 31.78 °N, 81.44 °W | Updated 45 minutes ago

Partly Cloudy
Partly Cloudy
65 °F
Feels Like 65 °F
N
3
Wind Variable Wind from North
Gusts 6.0 mph

Today
High -- | Low -- °F
--% Chance of Precip.
Yesterday
High -- | Low -- °F
Precip. -- in
7:35 AM 6:43 PM
New Moon, 1% visible
Pressure 30.08 in
Visibility 10.0 miles
Clouds Clear
Dew Point 55 °F
Humidity 69%
Rainfall 0.00 in
Snow Depth Not available.
UV 6 out of 12
Pollen 4.00 out of 12
Air Quality Not available.
Flu Activity Sporadic
METAR KBQK 241535Z AUTO 02003KT 10SM CLR 21/09 A3008 RMK AO1

More Conditions Fewer Conditions

Pressure 30.08 in
Visibility 10.0 miles
Clouds Clear
Dew Point 55 °F
Humidity 69%
Rainfall 0.00 in
Snow Depth Not available.
UV 6 out of 12
Pollen 4.00 out of 12
Air Quality Not available.
Flu Activity Sporadic
METAR KBQK 241535Z AUTO 02003KT 10SM CLR 21/09 A3008 RMK AO1

More Conditions Fewer Conditions

10-Day Weather Forecast

Almanac

Astronomy

Oct. 24, 2014 Rise Set
Actual Time 7:35 AM EDT 6:43 PM EDT
Civil Twilight 7:10 AM EDT 7:08 PM EDT
Nautical Twilight 6:42 AM EDT 7:37 PM EDT
Astronomical Twilight 6:13 AM EDT 8:05 PM EDT
Moon 8:11 AM EDT 7:25 PM EDT
Length of Visible Light 11h 58m
Length of Day
11h 08m
Tomorrow will be 1m 46s shorter.
New Moon, 1% of the Moon is Illuminated
Today
New Moon
Oct 30
First Quarter
Nov 6
Full
Nov 14
Last Quarter
Nov 22
New

Today's Extremes

State Highs State Lows

Community

WunderPhotos

Upload Photos

1,764,590 photos uploaded!

WunderBlogs® & News

Nearby

Snow Depth

Station Depth Elevation
No new snow has been reported.

Earthquake Activity

City Distance Mag. Time & Date
No recent earthquake activity has been reported nearby.
Minimum magnitude displayed is 2.5.

Coastal Water Temperatures

Place Temperature
No Stations Reporting

Nearby Weather Stations